LF0927 weather

Troye d'Ariège ULM
Troye d'Ariège, Midi-Pyrénées, France

Public forecast

Using degrees Celsius for public forecast. Weather courtesy of forecast.io.

METAR (pilot weather report)

Closest report is Carcassonne Airport, 22.2 nm (41.1 km) ENE. Retrieved 2019/09/21 01:30 UTC (21 minutes ago):

LFMK 210130Z AUTO 08015KT 9999 OVC012 20/18 Q1016

TAF (pilot weather forecast)

Closest forecast is Carcassonne Airport, 22.2 nm (41.1 km) ENE. Retrieved 2019/09/21 03:21 UTC (0 seconds ago):

TAF LFMK 210200Z 2103/2203 09015KT 9999 -RA SCT010 OVC025 TEMPO 2109/2113 10020G35KT BKN010 FEW015CB OVC030 PROB40 TEMPO 2109/2113 4000 TSRA BECMG 2113/2115 SCT015 BKN030